createdAt,value
2023-02-14T00:00:41.580Z,103119.77
2023-02-14T00:02:02.002Z,103115.13
2023-02-14T00:03:03.556Z,103115.61
2023-02-14T00:04:05.344Z,103119.41
2023-02-14T00:05:07.226Z,103119.08
2023-02-14T00:06:11.863Z,103118.91
2023-02-14T00:07:13.886Z,103119.49
2023-02-14T00:08:15.665Z,103119.08
2023-02-14T00:09:18.764Z,103123.70
2023-02-14T00:10:20.287Z,103119.85
2023-02-14T00:11:21.978Z,103126.64
2023-02-14T00:12:23.746Z,103127.77
2023-02-14T00:13:25.204Z,103130.35
2023-02-14T00:14:45.250Z,103133.94
2023-02-14T00:15:46.719Z,103136.25
2023-02-14T00:16:48.955Z,103132.02
2023-02-14T00:17:53.979Z,103127.92
2023-02-14T00:19:04.827Z,103126.35
2023-02-14T00:20:06.961Z,103126.54
2023-02-14T00:21:08.498Z,103126.54
2023-02-14T00:22:10.075Z,103127.13
2023-02-14T00:23:11.754Z,103129.29
2023-02-14T00:24:22.778Z,103123.96
2023-02-14T00:25:24.311Z,103126.46
2023-02-14T00:26:25.816Z,103128.90
2023-02-14T00:27:27.353Z,103126.07
2023-02-14T00:28:28.992Z,103124.61
2023-02-14T00:29:32.142Z,103123.52
2023-02-14T00:30:34.280Z,103124.54
2023-02-14T00:31:40.881Z,103119.73
2023-02-14T00:32:42.786Z,103120.45
2023-02-14T00:33:44.482Z,103123.48
2023-02-14T00:34:45.891Z,103127.34
2023-02-14T00:35:47.766Z,103129.30
2023-02-14T00:36:50.159Z,103132.87
2023-02-14T00:37:51.867Z,103133.41
2023-02-14T00:38:54.652Z,103132.23
2023-02-14T00:39:56.205Z,103128.14
2023-02-14T00:40:58.272Z,103123.75
2023-02-14T00:42:00.131Z,103125.54
2023-02-14T00:43:01.742Z,103125.87
2023-02-14T00:44:03.503Z,103129.46
2023-02-14T00:45:05.227Z,103125.45
2023-02-14T00:46:06.789Z,103129.00
2023-02-14T00:47:08.590Z,103132.02
2023-02-14T00:48:10.126Z,103127.98
2023-02-14T00:49:12.789Z,103131.20
2023-02-14T00:50:14.294Z,103138.66
2023-02-14T00:51:17.750Z,103141.88
2023-02-14T00:52:19.285Z,103146.66
2023-02-14T00:53:20.803Z,103149.34
2023-02-14T00:54:22.596Z,103148.13
2023-02-14T00:55:24.069Z,103151.54
2023-02-14T00:56:25.618Z,103157.21
2023-02-14T00:57:27.082Z,103155.84
2023-02-14T00:58:29.284Z,103160.98
2023-02-14T00:59:31.029Z,103166.44
2023-02-14T01:00:32.658Z,103160.97
2023-02-14T01:01:34.732Z,103160.95
2023-02-14T01:02:37.868Z,103159.56
2023-02-14T01:03:39.640Z,103154.39
2023-02-14T01:04:41.476Z,103153.71
2023-02-14T01:05:43.108Z,103154.02
2023-02-14T01:06:44.710Z,103149.78
2023-02-14T01:07:47.920Z,103148.38
2023-02-14T01:08:49.449Z,103150.48
2023-02-14T01:09:51.137Z,103157.02
2023-02-14T01:10:52.857Z,103154.34
2023-02-14T01:11:54.473Z,103158.48
2023-02-14T01:12:56.044Z,103162.91
2023-02-14T01:13:58.187Z,103164.39
2023-02-14T01:15:00.029Z,103164.98
2023-02-14T01:16:07.007Z,103164.52
2023-02-14T01:17:08.514Z,103166.09
2023-02-14T01:18:10.661Z,103168.21
2023-02-14T01:19:12.332Z,103167.84
2023-02-14T01:20:14.223Z,103171.20
2023-02-14T01:21:22.793Z,103170.08
2023-02-14T01:22:24.338Z,103165.77
2023-02-14T01:23:26.907Z,103167.19
2023-02-14T01:24:28.359Z,103166.63
2023-02-14T01:25:30.548Z,103166.41
2023-02-14T01:26:34.763Z,103168.32
2023-02-14T01:27:36.595Z,103168.48
2023-02-14T01:28:38.853Z,103165.45
2023-02-14T01:29:40.356Z,103166.14
2023-02-14T01:30:42.082Z,103166.24
2023-02-14T01:31:44.752Z,103167.89
2023-02-14T01:32:46.813Z,103166.44
2023-02-14T01:33:49.182Z,103164.36
2023-02-14T01:34:50.998Z,103163.87
2023-02-14T01:35:52.552Z,103166.37
2023-02-14T01:36:55.251Z,103166.80
2023-02-14T01:37:56.838Z,103163.44
2023-02-14T01:39:07.027Z,103162.24
2023-02-14T01:40:13.740Z,103163.30
2023-02-14T01:41:18.428Z,103164.21
2023-02-14T01:42:20.014Z,103163.73
2023-02-14T01:43:22.410Z,103167.17
2023-02-14T01:44:36.485Z,103164.45
2023-02-14T01:45:37.987Z,103167.31
2023-02-14T01:46:41.675Z,103168.32
2023-02-14T01:47:45.614Z,103169.83
2023-02-14T01:48:48.135Z,103168.91
2023-02-14T01:49:55.210Z,103170.22
2023-02-14T01:50:57.055Z,103165.79
2023-02-14T01:52:09.836Z,103166.45
2023-02-14T01:53:18.363Z,103167.67
2023-02-14T01:54:24.127Z,103165.28
2023-02-14T01:55:29.662Z,103165.86
2023-02-14T01:56:43.114Z,103165.33
2023-02-14T01:57:58.796Z,103167.30
2023-02-14T01:59:04.707Z,103166.77
2023-02-14T02:00:26.458Z,103166.77
2023-02-14T02:01:29.832Z,103164.55
2023-02-14T02:02:31.489Z,103160.66
2023-02-14T02:03:40.939Z,103159.61
2023-02-14T02:04:46.499Z,103164.18
2023-02-14T02:05:52.236Z,103165.10
2023-02-14T02:07:01.033Z,103167.42
2023-02-14T02:08:03.667Z,103165.68
2023-02-14T02:09:12.455Z,103165.52
2023-02-14T02:10:13.955Z,103171.36
2023-02-14T02:11:16.420Z,103167.66
2023-02-14T02:12:18.142Z,103167.38
2023-02-14T02:13:22.112Z,103171.11
2023-02-14T02:14:24.128Z,103167.98
2023-02-14T02:15:26.891Z,103168.37
2023-02-14T02:16:46.964Z,103166.31
2023-02-14T02:17:52.497Z,103166.16
2023-02-14T02:19:23.678Z,103168.49
2023-02-14T02:20:57.360Z,103163.35
2023-02-14T02:22:05.301Z,103164.36
2023-02-14T02:23:28.713Z,103163.85
2023-02-14T02:24:53.357Z,103167.77
2023-02-14T02:26:10.217Z,103165.34
2023-02-14T02:27:20.930Z,103166.60
2023-02-14T02:28:55.714Z,103166.45
2023-02-14T02:30:10.873Z,103168.95
2023-02-14T02:32:28.217Z,103169.47
2023-02-14T02:33:35.563Z,103173.09
2023-02-14T02:35:04.947Z,103176.73
2023-02-14T02:36:18.769Z,103173.52
2023-02-14T02:37:42.308Z,103174.13
2023-02-14T02:39:08.936Z,103174.52
2023-02-14T02:40:24.298Z,103176.70
2023-02-14T02:42:21.195Z,103174.05
2023-02-14T02:43:45.518Z,103182.13
2023-02-14T02:44:50.187Z,103183.23
2023-02-14T02:46:22.293Z,103183.29
2023-02-14T02:47:43.662Z,103183.34
2023-02-14T02:48:59.181Z,103187.01
2023-02-14T02:50:59.109Z,103181.50
2023-02-14T02:52:22.585Z,103189.48
2023-02-14T02:53:45.796Z,103196.33
2023-02-14T02:54:58.326Z,103196.34
2023-02-14T02:56:30.099Z,103197.73
2023-02-14T02:57:37.862Z,103201.80
2023-02-14T02:58:45.905Z,103196.21
2023-02-14T02:59:51.300Z,103200.34
2023-02-14T03:00:54.694Z,103199.59
2023-02-14T03:02:01.803Z,103201.58
2023-02-14T03:03:23.080Z,103199.83
2023-02-14T03:04:45.098Z,103197.95
2023-02-14T03:05:46.895Z,103195.12
2023-02-14T03:06:50.430Z,103197.20
2023-02-14T03:07:52.394Z,103196.51
2023-02-14T03:08:53.990Z,103201.52
2023-02-14T03:09:58.225Z,103200.08
2023-02-14T03:11:02.392Z,103205.69
2023-02-14T03:12:28.876Z,103209.51
2023-02-14T03:14:00.495Z,103210.77
2023-02-14T03:15:17.907Z,103208.92
2023-02-14T03:16:32.588Z,103204.75
2023-02-14T03:17:58.346Z,103201.59
2023-02-14T03:19:00.477Z,103196.13
2023-02-14T03:20:17.154Z,103198.14
2023-02-14T03:21:36.631Z,103205.71
2023-02-14T03:22:38.278Z,103203.63
2023-02-14T03:24:08.877Z,103204.52
2023-02-14T03:25:16.424Z,103210.39
2023-02-14T03:26:44.171Z,103213.05
2023-02-14T03:27:56.473Z,103214.91
2023-02-14T03:29:31.068Z,103208.60
2023-02-14T03:30:41.497Z,103207.61
2023-02-14T03:31:50.480Z,103207.35
2023-02-14T03:33:00.777Z,103210.59
2023-02-14T03:34:11.674Z,103210.98
2023-02-14T03:35:28.751Z,103215.61
2023-02-14T03:36:54.677Z,103211.88
2023-02-14T03:38:13.681Z,103212.33
2023-02-14T03:39:27.296Z,103209.23
2023-02-14T03:40:44.347Z,103207.86
2023-02-14T03:41:53.243Z,103207.56
2023-02-14T03:43:18.494Z,103208.84
2023-02-14T03:44:25.205Z,103209.38
2023-02-14T03:45:35.267Z,103211.04
2023-02-14T03:46:43.824Z,103217.09
2023-02-14T03:47:48.103Z,103217.13
2023-02-14T03:48:52.966Z,103216.67
2023-02-14T03:50:10.097Z,103221.10
2023-02-14T03:51:14.070Z,103218.91
2023-02-14T03:52:17.973Z,103218.08
2023-02-14T03:53:25.339Z,103219.50
2023-02-14T03:54:29.587Z,103219.95
2023-02-14T03:55:39.757Z,103223.66
2023-02-14T03:56:52.277Z,103227.20
2023-02-14T03:58:15.929Z,103226.10
2023-02-14T03:59:25.056Z,103228.73
2023-02-14T04:00:30.702Z,103223.72
2023-02-14T04:01:47.045Z,103218.84
2023-02-14T04:02:54.519Z,103215.03
2023-02-14T04:03:58.768Z,103217.38
2023-02-14T04:05:03.502Z,103221.98
2023-02-14T04:06:05.280Z,103221.30
2023-02-14T04:07:18.164Z,103221.30
2023-02-14T04:08:25.487Z,103224.45
2023-02-14T04:09:27.271Z,103227.30
2023-02-14T04:10:29.400Z,103227.16
2023-02-14T04:11:35.229Z,103225.17
2023-02-14T04:12:38.173Z,103219.35
2023-02-14T04:13:40.354Z,103216.60
2023-02-14T04:14:41.946Z,103212.82
2023-02-14T04:15:44.620Z,103209.66
2023-02-14T04:17:04.878Z,103209.31
2023-02-14T04:18:25.143Z,103214.02
2023-02-14T04:19:26.994Z,103215.67
2023-02-14T04:20:29.045Z,103221.02
2023-02-14T04:21:30.752Z,103223.34
2023-02-14T04:22:32.254Z,103222.30
2023-02-14T04:23:33.848Z,103217.55
2023-02-14T04:24:35.388Z,103212.43
2023-02-14T04:25:39.434Z,103210.95
2023-02-14T04:26:53.292Z,103209.52
2023-02-14T04:27:55.194Z,103210.86
2023-02-14T04:28:56.693Z,103213.34
2023-02-14T04:29:58.237Z,103212.92
2023-02-14T04:31:06.006Z,103217.57
2023-02-14T04:32:10.443Z,103216.61
2023-02-14T04:33:12.077Z,103216.76
2023-02-14T04:34:13.924Z,103215.95
2023-02-14T04:35:15.408Z,103212.48
2023-02-14T04:36:17.166Z,103205.98
2023-02-14T04:37:19.514Z,103202.97
2023-02-14T04:38:21.256Z,103203.73
2023-02-14T04:39:22.851Z,103201.91
2023-02-14T04:40:24.368Z,103200.31
2023-02-14T04:41:26.376Z,103204.23
2023-02-14T04:42:28.111Z,103201.42
2023-02-14T04:43:29.744Z,103209.60
2023-02-14T04:44:33.336Z,103207.70
2023-02-14T04:45:34.906Z,103207.77
2023-02-14T04:46:37.047Z,103206.94
2023-02-14T04:47:39.186Z,103202.54
2023-02-14T04:48:40.735Z,103201.98
2023-02-14T04:49:42.267Z,103206.38
2023-02-14T04:50:43.929Z,103206.17
2023-02-14T04:51:46.869Z,103201.20
2023-02-14T04:52:49.104Z,103206.98
2023-02-14T04:53:50.650Z,103204.02
2023-02-14T04:54:52.302Z,103201.84
2023-02-14T04:55:53.943Z,103204.08
2023-02-14T04:56:55.745Z,103204.75
2023-02-14T04:57:57.405Z,103207.29
2023-02-14T04:58:59.892Z,103201.18
2023-02-14T05:00:01.967Z,103203.69
2023-02-14T05:01:04.344Z,103206.85
2023-02-14T05:02:06.166Z,103208.08
2023-02-14T05:03:08.075Z,103213.38
2023-02-14T05:04:10.056Z,103212.75
2023-02-14T05:05:11.894Z,103213.41
2023-02-14T05:06:13.410Z,103213.73
2023-02-14T05:07:15.287Z,103217.28
2023-02-14T05:08:16.875Z,103214.89
2023-02-14T05:09:18.411Z,103212.02
2023-02-14T05:10:19.996Z,103214.12
2023-02-14T05:11:22.253Z,103209.40
2023-02-14T05:12:24.092Z,103210.71
2023-02-14T05:13:25.680Z,103212.09
2023-02-14T05:14:27.487Z,103211.73
2023-02-14T05:15:28.983Z,103212.09
2023-02-14T05:16:30.820Z,103213.52
2023-02-14T05:17:33.077Z,103213.58
2023-02-14T05:18:34.668Z,103221.86
2023-02-14T05:19:36.291Z,103220.49
2023-02-14T05:20:37.771Z,103221.94
2023-02-14T05:21:39.264Z,103221.94
2023-02-14T05:22:40.923Z,103226.83
2023-02-14T05:23:42.695Z,103226.24
2023-02-14T05:24:44.190Z,103226.34
2023-02-14T05:25:48.694Z,103226.62
2023-02-14T05:26:50.175Z,103227.78
2023-02-14T05:27:52.102Z,103221.98
2023-02-14T05:28:53.820Z,103219.44
2023-02-14T05:29:55.386Z,103221.31
2023-02-14T05:30:58.066Z,103223.83
2023-02-14T05:31:59.808Z,103228.52
2023-02-14T05:33:01.562Z,103229.66
2023-02-14T05:34:03.405Z,103233.21
2023-02-14T05:35:05.457Z,103233.56
2023-02-14T05:36:07.412Z,103236.55
2023-02-14T05:37:08.964Z,103238.48
2023-02-14T05:38:12.546Z,103241.21
2023-02-14T05:39:14.290Z,103238.13
2023-02-14T05:40:16.037Z,103235.05
2023-02-14T05:41:18.180Z,103232.52
2023-02-14T05:42:19.733Z,103233.12
2023-02-14T05:43:21.781Z,103236.00
2023-02-14T05:44:23.447Z,103233.98
2023-02-14T05:45:25.336Z,103240.00
2023-02-14T05:46:27.104Z,103240.70
2023-02-14T05:47:28.584Z,103246.05
2023-02-14T05:48:30.620Z,103247.20
2023-02-14T05:49:32.177Z,103247.29
2023-02-14T05:50:33.788Z,103249.66
2023-02-14T05:51:35.340Z,103249.73
2023-02-14T05:52:37.362Z,103248.26
2023-02-14T05:53:39.275Z,103244.81
2023-02-14T05:54:41.387Z,103245.30
2023-02-14T05:55:42.899Z,103245.65
2023-02-14T05:56:44.418Z,103246.55
2023-02-14T05:57:46.531Z,103251.42
2023-02-14T05:58:48.188Z,103253.95
2023-02-14T05:59:49.899Z,103252.17
2023-02-14T06:00:51.489Z,103255.44
2023-02-14T06:01:53.048Z,103257.16
2023-02-14T06:02:54.592Z,103262.96
2023-02-14T06:03:56.349Z,103261.02
2023-02-14T06:04:58.277Z,103264.13
2023-02-14T06:05:59.773Z,103264.74
2023-02-14T06:07:01.370Z,103264.05
2023-02-14T06:08:03.056Z,103258.13
2023-02-14T06:09:04.883Z,103261.55
2023-02-14T06:10:09.173Z,103263.64
2023-02-14T06:11:10.696Z,103265.29
2023-02-14T06:12:12.259Z,103268.92
2023-02-14T06:13:14.138Z,103277.23
2023-02-14T06:14:15.989Z,103271.63
2023-02-14T06:15:18.358Z,103269.34
2023-02-14T06:16:19.912Z,103270.15
2023-02-14T06:17:21.433Z,103267.26
2023-02-14T06:18:26.749Z,103268.59
2023-02-14T06:19:28.270Z,103270.19
2023-02-14T06:20:30.521Z,103273.56
2023-02-14T06:21:32.213Z,103276.09
2023-02-14T06:22:33.818Z,103278.98
2023-02-14T06:23:35.490Z,103280.85
2023-02-14T06:24:37.232Z,103278.53
2023-02-14T06:25:39.008Z,103279.25
2023-02-14T06:26:40.680Z,103279.40
2023-02-14T06:27:42.354Z,103281.19
2023-02-14T06:28:43.999Z,103285.07
2023-02-14T06:29:45.778Z,103287.62
2023-02-14T06:30:47.699Z,103294.08
2023-02-14T06:31:49.680Z,103294.89
2023-02-14T06:32:51.242Z,103297.69
2023-02-14T06:33:52.919Z,103294.56
2023-02-14T06:34:54.419Z,103295.15
2023-02-14T06:35:56.127Z,103293.25
2023-02-14T06:36:57.521Z,103295.52
2023-02-14T06:37:59.192Z,103294.52
2023-02-14T06:39:00.941Z,103293.38
2023-02-14T06:40:02.723Z,103289.05
2023-02-14T06:41:06.530Z,103288.42
2023-02-14T06:42:08.289Z,103284.92
2023-02-14T06:43:09.927Z,103290.27
2023-02-14T06:44:11.672Z,103293.02
2023-02-14T06:45:13.334Z,103298.63
2023-02-14T06:46:16.547Z,103309.16
2023-02-14T06:47:18.083Z,103312.09
2023-02-14T06:48:19.586Z,103314.06
2023-02-14T06:49:21.047Z,103310.38
2023-02-14T06:50:22.649Z,103304.10
2023-02-14T06:51:24.383Z,103301.40
2023-02-14T06:52:25.968Z,103294.08
2023-02-14T06:53:27.636Z,103297.37
2023-02-14T06:54:29.447Z,103296.22
2023-02-14T06:55:31.296Z,103300.41
2023-02-14T06:56:33.020Z,103304.91
2023-02-14T06:57:34.483Z,103309.56
2023-02-14T06:58:36.018Z,103316.87
2023-02-14T06:59:37.947Z,103316.31
2023-02-14T07:00:39.652Z,103318.65
2023-02-14T07:01:41.372Z,103315.59
2023-02-14T07:02:43.033Z,103309.20
2023-02-14T07:03:44.680Z,103310.52
2023-02-14T07:04:46.200Z,103311.64
2023-02-14T07:05:47.671Z,103315.05
2023-02-14T07:06:49.550Z,103318.60
2023-02-14T07:07:51.255Z,103321.77
2023-02-14T07:08:52.726Z,103319.99
2023-02-14T07:09:54.389Z,103322.91
2023-02-14T07:10:57.106Z,103328.27
2023-02-14T07:11:59.081Z,103330.91
2023-02-14T07:13:00.933Z,103329.61
2023-02-14T07:14:02.458Z,103330.20
2023-02-14T07:15:04.767Z,103330.92
2023-02-14T07:16:06.634Z,103328.42
2023-02-14T07:17:08.492Z,103326.30
2023-02-14T07:18:10.955Z,103325.92
2023-02-14T07:19:12.454Z,103324.21
2023-02-14T07:20:14.012Z,103325.70
2023-02-14T07:21:15.929Z,103324.96
2023-02-14T07:22:17.558Z,103328.38
2023-02-14T07:23:19.244Z,103330.56
2023-02-14T07:24:21.636Z,103334.79
2023-02-14T07:25:23.464Z,103334.36
2023-02-14T07:26:25.182Z,103339.52
2023-02-14T07:27:26.804Z,103335.90
2023-02-14T07:28:29.739Z,103328.91
2023-02-14T07:29:31.205Z,103329.38
2023-02-14T07:30:32.819Z,103325.92
2023-02-14T07:31:34.585Z,103327.73
2023-02-14T07:32:37.342Z,103335.66
2023-02-14T07:33:38.913Z,103338.67
2023-02-14T07:34:40.553Z,103345.20
2023-02-14T07:35:42.058Z,103346.95
2023-02-14T07:36:43.636Z,103352.59
2023-02-14T07:37:45.316Z,103349.05
2023-02-14T07:38:46.738Z,103344.70
2023-02-14T07:39:48.320Z,103343.88
2023-02-14T07:40:53.011Z,103341.45
2023-02-14T07:41:54.676Z,103342.23
2023-02-14T07:42:57.540Z,103342.95
2023-02-14T07:43:59.444Z,103346.31
2023-02-14T07:45:06.961Z,103345.52
2023-02-14T07:46:17.708Z,103344.89
2023-02-14T07:47:19.399Z,103345.91
2023-02-14T07:48:21.477Z,103348.59
2023-02-14T07:49:22.932Z,103350.14
2023-02-14T07:50:24.462Z,103352.42
2023-02-14T07:51:26.058Z,103359.70
2023-02-14T07:52:27.633Z,103364.27
2023-02-14T07:53:29.437Z,103366.46
2023-02-14T07:54:31.070Z,103366.43
2023-02-14T07:55:32.605Z,103362.22
2023-02-14T07:56:34.098Z,103361.49
2023-02-14T07:57:35.748Z,103354.84
2023-02-14T07:58:37.520Z,103348.02
2023-02-14T07:59:39.014Z,103345.21
2023-02-14T08:00:40.407Z,103342.40
2023-02-14T08:01:42.475Z,103345.42
2023-02-14T08:02:44.235Z,103345.44
2023-02-14T08:03:48.824Z,103348.89
2023-02-14T08:04:50.316Z,103351.65
2023-02-14T08:05:56.361Z,103352.00
2023-02-14T08:06:57.908Z,103348.83
2023-02-14T08:07:59.665Z,103350.57
2023-02-14T08:09:01.513Z,103349.04
2023-02-14T08:10:03.337Z,103349.25
2023-02-14T08:11:05.034Z,103352.05
2023-02-14T08:12:25.380Z,103354.25
2023-02-14T08:13:27.109Z,103350.16
2023-02-14T08:14:28.805Z,103360.16
2023-02-14T08:15:51.554Z,103360.30
2023-02-14T08:16:53.419Z,103361.13
2023-02-14T08:17:58.097Z,103361.93
2023-02-14T08:19:00.565Z,103356.11
2023-02-14T08:20:02.375Z,103357.03
2023-02-14T08:21:06.377Z,103360.45
2023-02-14T08:22:07.889Z,103361.48
2023-02-14T08:23:09.682Z,103363.02
2023-02-14T08:24:11.202Z,103370.77
2023-02-14T08:25:12.948Z,103372.20
2023-02-14T08:26:15.401Z,103372.02
2023-02-14T08:27:16.936Z,103369.95
2023-02-14T08:28:20.815Z,103372.06
2023-02-14T08:29:22.627Z,103370.87
2023-02-14T08:30:24.396Z,103369.73
2023-02-14T08:31:35.787Z,103369.88
2023-02-14T08:32:38.033Z,103372.52
2023-02-14T08:33:39.745Z,103372.63
2023-02-14T08:34:41.464Z,103374.95
2023-02-14T08:35:43.321Z,103377.75
2023-02-14T08:36:45.043Z,103376.95
2023-02-14T08:37:46.832Z,103379.34
2023-02-14T08:38:48.548Z,103375.74
2023-02-14T08:39:50.248Z,103375.84
2023-02-14T08:40:52.029Z,103374.13
2023-02-14T08:41:53.560Z,103375.27
2023-02-14T08:42:55.106Z,103369.99
2023-02-14T08:43:56.659Z,103367.11
2023-02-14T08:44:58.242Z,103370.73
2023-02-14T08:46:01.191Z,103372.60
2023-02-14T08:47:03.388Z,103373.92
2023-02-14T08:48:07.819Z,103371.87
2023-02-14T08:49:09.780Z,103377.98
2023-02-14T08:50:15.403Z,103379.20
2023-02-14T08:51:17.165Z,103381.65
2023-02-14T08:52:18.742Z,103380.28
2023-02-14T08:53:21.453Z,103372.89
2023-02-14T08:54:22.922Z,103370.84
2023-02-14T08:55:25.302Z,103367.65
2023-02-14T08:56:26.901Z,103360.16
2023-02-14T08:57:28.428Z,103362.94
2023-02-14T08:58:30.922Z,103362.63
2023-02-14T08:59:33.606Z,103356.53
2023-02-14T09:00:35.280Z,103361.77
2023-02-14T09:01:37.177Z,103361.75
2023-02-14T09:02:38.738Z,103365.16
2023-02-14T09:03:40.794Z,103369.41
2023-02-14T09:04:42.327Z,103368.19
2023-02-14T09:05:43.926Z,103371.05
2023-02-14T09:06:45.599Z,103365.75
2023-02-14T09:07:47.076Z,103364.56
2023-02-14T09:08:48.841Z,103366.77
2023-02-14T09:09:50.382Z,103364.86
2023-02-14T09:10:52.015Z,103363.21
2023-02-14T09:11:55.467Z,103362.81
2023-02-14T09:12:57.029Z,103363.92
2023-02-14T09:13:58.572Z,103358.66
2023-02-14T09:15:00.119Z,103359.77
2023-02-14T09:16:05.933Z,103358.02
2023-02-14T09:17:07.680Z,103356.44
2023-02-14T09:18:09.275Z,103359.55
2023-02-14T09:19:10.908Z,103358.34
2023-02-14T09:20:14.519Z,103356.84
2023-02-14T09:21:22.076Z,103359.35
2023-02-14T09:22:23.728Z,103361.73
2023-02-14T09:23:25.330Z,103365.11
2023-02-14T09:24:27.048Z,103367.42
2023-02-14T09:25:28.622Z,103367.92
2023-02-14T09:26:30.103Z,103365.67
2023-02-14T09:27:31.824Z,103366.89
2023-02-14T09:28:34.525Z,103362.18
2023-02-14T09:29:36.234Z,103361.20
2023-02-14T09:30:37.741Z,103359.25
2023-02-14T09:31:39.613Z,103362.58
2023-02-14T09:32:41.246Z,103362.49
2023-02-14T09:33:44.093Z,103361.70
2023-02-14T09:34:45.573Z,103364.46
2023-02-14T09:35:47.205Z,103364.37
2023-02-14T09:36:48.775Z,103366.94
2023-02-14T09:37:50.809Z,103368.27
2023-02-14T09:38:52.458Z,103368.02
2023-02-14T09:39:53.924Z,103363.42
2023-02-14T09:40:55.440Z,103364.62
2023-02-14T09:42:03.688Z,103364.93
2023-02-14T09:43:14.722Z,103367.42
2023-02-14T09:44:25.675Z,103372.84
2023-02-14T09:45:29.314Z,103371.81
2023-02-14T09:46:42.308Z,103374.61
2023-02-14T09:47:55.869Z,103375.25
2023-02-14T09:48:57.952Z,103369.71
2023-02-14T09:50:00.904Z,103374.74
2023-02-14T09:51:04.568Z,103370.44
2023-02-14T09:52:12.168Z,103373.23
2023-02-14T09:53:29.519Z,103373.44
2023-02-14T09:54:34.154Z,103373.58
2023-02-14T09:55:45.838Z,103372.67
2023-02-14T09:57:01.430Z,103374.42
2023-02-14T09:58:18.531Z,103371.32
2023-02-14T09:59:30.179Z,103373.23
2023-02-14T10:00:37.439Z,103378.70
2023-02-14T10:01:45.362Z,103379.92
2023-02-14T10:03:05.570Z,103380.54
2023-02-14T10:04:30.343Z,103381.80
2023-02-14T10:05:42.151Z,103381.86
2023-02-14T10:07:26.450Z,103386.27
2023-02-14T10:08:55.053Z,103381.36
2023-02-14T10:10:11.299Z,103378.19
2023-02-14T10:11:17.220Z,103382.54
2023-02-14T10:12:34.907Z,103381.31
2023-02-14T10:13:46.249Z,103384.77
2023-02-14T10:14:49.650Z,103387.21
2023-02-14T10:16:01.571Z,103388.92
2023-02-14T10:17:13.131Z,103389.73
2023-02-14T10:18:20.841Z,103389.67
2023-02-14T10:19:31.142Z,103384.94
2023-02-14T10:20:41.018Z,103384.84
2023-02-14T10:22:04.794Z,103380.16
2023-02-14T10:23:21.884Z,103385.97
2023-02-14T10:24:37.785Z,103383.94
2023-02-14T10:25:48.010Z,103385.59
2023-02-14T10:26:52.204Z,103381.54
2023-02-14T10:27:57.700Z,103385.79
2023-02-14T10:28:59.266Z,103383.52
2023-02-14T10:30:02.756Z,103379.88
2023-02-14T10:31:14.244Z,103379.33
2023-02-14T10:32:25.167Z,103371.90
2023-02-14T10:33:32.791Z,103369.64
2023-02-14T10:34:48.393Z,103370.91
2023-02-14T10:35:55.342Z,103372.27
2023-02-14T10:37:14.870Z,103373.46
2023-02-14T10:38:42.135Z,103368.44
2023-02-14T10:40:21.164Z,103368.21
2023-02-14T10:41:49.033Z,103371.40
2023-02-14T10:43:15.634Z,103368.48
2023-02-14T10:44:41.033Z,103367.67
2023-02-14T10:46:06.108Z,103366.52
2023-02-14T10:47:35.931Z,103374.10
2023-02-14T10:49:02.578Z,103376.34
2023-02-14T10:50:29.921Z,103373.58
2023-02-14T10:51:41.938Z,103373.48
2023-02-14T10:53:13.413Z,103374.10
2023-02-14T10:54:25.578Z,103374.82
2023-02-14T10:55:43.493Z,103369.88
2023-02-14T10:56:52.845Z,103370.45
2023-02-14T10:57:56.087Z,103373.20
2023-02-14T10:59:02.045Z,103374.27
2023-02-14T11:00:29.613Z,103374.59
2023-02-14T11:01:33.108Z,103375.33
2023-02-14T11:02:45.589Z,103372.02
2023-02-14T11:04:10.934Z,103371.81
2023-02-14T11:05:42.796Z,103371.02
2023-02-14T11:06:48.522Z,103366.71
2023-02-14T11:07:50.067Z,103368.38
2023-02-14T11:08:51.695Z,103368.70
2023-02-14T11:09:53.136Z,103370.35
2023-02-14T11:11:17.783Z,103365.98
2023-02-14T11:12:39.259Z,103368.73
2023-02-14T11:13:41.723Z,103368.67
2023-02-14T11:14:43.446Z,103373.31
2023-02-14T11:15:50.105Z,103373.94
2023-02-14T11:16:52.945Z,103375.71
2023-02-14T11:18:25.137Z,103377.73
2023-02-14T11:19:31.049Z,103376.38
2023-02-14T11:20:32.969Z,103373.88
2023-02-14T11:21:39.447Z,103374.02
2023-02-14T11:22:41.263Z,103367.50
2023-02-14T11:23:46.982Z,103365.12
2023-02-14T11:24:48.660Z,103366.02
2023-02-14T11:25:54.787Z,103358.55
2023-02-14T11:27:09.238Z,103361.30
2023-02-14T11:28:17.883Z,103357.65
2023-02-14T11:29:34.567Z,103360.41
2023-02-14T11:30:40.726Z,103359.67
2023-02-14T11:31:42.785Z,103360.32
2023-02-14T11:32:54.425Z,103360.52
2023-02-14T11:33:57.300Z,103354.64
2023-02-14T11:35:07.154Z,103354.02
2023-02-14T11:36:14.418Z,103353.16
2023-02-14T11:37:26.182Z,103353.42
2023-02-14T11:38:35.131Z,103352.82
2023-02-14T11:39:36.667Z,103346.41
2023-02-14T11:40:39.873Z,103344.61
2023-02-14T11:41:55.960Z,103343.31
2023-02-14T11:43:19.838Z,103347.39
2023-02-14T11:44:25.527Z,103345.39
2023-02-14T11:45:27.145Z,103346.62
2023-02-14T11:46:30.420Z,103348.11
2023-02-14T11:47:42.452Z,103346.03
2023-02-14T11:48:59.310Z,103350.70
2023-02-14T11:50:05.411Z,103351.96
2023-02-14T11:51:14.104Z,103350.89
2023-02-14T11:52:19.054Z,103347.48
2023-02-14T11:53:25.087Z,103349.33
2023-02-14T11:54:38.416Z,103348.66
2023-02-14T11:55:40.349Z,103348.12
2023-02-14T11:57:04.783Z,103349.48
2023-02-14T11:58:07.927Z,103350.87
2023-02-14T11:59:20.314Z,103344.81
2023-02-14T12:00:23.002Z,103346.58
2023-02-14T12:01:31.659Z,103340.03
2023-02-14T12:02:38.141Z,103337.81
2023-02-14T12:03:46.634Z,103343.45
2023-02-14T12:04:52.657Z,103345.19
2023-02-14T12:05:59.772Z,103340.79
2023-02-14T12:07:32.487Z,103340.98
2023-02-14T12:08:36.959Z,103346.41
2023-02-14T12:09:40.781Z,103349.26
2023-02-14T12:10:42.276Z,103340.09
2023-02-14T12:11:57.382Z,103343.00
2023-02-14T12:13:07.930Z,103343.77
2023-02-14T12:14:21.491Z,103339.40
2023-02-14T12:15:23.461Z,103338.94
2023-02-14T12:16:37.846Z,103332.61
2023-02-14T12:17:43.868Z,103338.03
2023-02-14T12:19:23.740Z,103336.98
2023-02-14T12:20:48.597Z,103335.77
2023-02-14T12:21:59.085Z,103331.70
2023-02-14T12:23:23.545Z,103330.48
2023-02-14T12:24:53.543Z,103332.59
2023-02-14T12:26:10.063Z,103331.86
2023-02-14T12:27:27.223Z,103331.70
2023-02-14T12:28:40.718Z,103329.77
2023-02-14T12:29:48.249Z,103327.35
2023-02-14T12:30:49.935Z,103327.37
2023-02-14T12:31:53.039Z,103330.53
2023-02-14T12:32:58.427Z,103327.92
2023-02-14T12:34:03.153Z,103325.70
2023-02-14T12:35:16.867Z,103329.58
2023-02-14T12:36:49.604Z,103324.17
2023-02-14T12:38:05.812Z,103327.35
2023-02-14T12:39:18.303Z,103320.91